Time;durP1;ratioP1;P1;durP2;ratioP2;P2;SDS_P1;SDS_P2;PMS_P1;PMS_P2;Temp;Humidity;BMP_temperature;BMP_pressure;BME280_temperature;BME280_humidity;BME280_pressure;Samples;Min_cycle;Max_cycle;Signal;HPM_P1;HPM_P2
2022/12/23 00:01:03;;;;;;;263.73;110.03;;;;;;;2.60;86.46;94694.16;4990660;28;20201;-76
2022/12/23 00:03:30;;;;;;;273.17;110.50;;;;;;;2.62;85.94;94702.59;4977304;28;20264;-76
2022/12/23 00:05:56;;;;;;;305.03;115.17;;;;;;;2.41;86.53;94681.53;4971809;28;20230;-76
2022/12/23 00:08:22;;;;;;;280.97;111.77;;;;;;;2.55;86.08;94686.06;4972141;28;20177;-76
2022/12/23 00:10:49;;;;;;;274.37;108.23;;;;;;;2.64;85.42;94708.44;4972197;28;20261;-76
2022/12/23 00:16:05;;;;;;;265.05;103.00;;;;;;;2.61;86.05;94706.16;4971683;28;20841;-76
2022/12/23 00:18:31;;;;;;;199.30;81.27;;;;;;;2.46;86.15;94688.84;4971932;28;20192;-76
2022/12/23 00:21:06;;;;;;;180.20;76.20;;;;;;;2.68;85.78;94724.53;4979624;28;20208;-76
2022/12/23 00:23:33;;;;;;;221.33;88.33;;;;;;;2.68;85.84;94713.31;4991300;28;20180;-76
2022/12/23 00:25:59;;;;;;;237.43;106.15;;;;;;;2.64;85.88;94721.44;4974478;28;20841;-76
2022/12/23 00:28:26;;;;;;;239.70;99.10;;;;;;;2.67;86.24;94722.09;4971785;28;20189;-76
2022/12/23 00:30:54;;;;;;;264.05;113.82;;;;;;;2.72;85.97;94717.19;4971434;28;20414;-76
2022/12/23 00:33:22;;;;;;;227.50;103.17;;;;;;;2.72;85.72;94717.19;4989158;28;20185;-76
2022/12/23 00:35:48;;;;;;;234.47;95.37;;;;;;;2.73;85.45;94717.03;4991034;28;20178;-76
2022/12/23 00:38:15;;;;;;;231.50;95.03;;;;;;;2.68;85.83;94718.50;4991172;28;20197;-76
2022/12/23 00:43:25;;;;;;;221.43;97.57;;;;;;;2.67;86.02;94711.69;4991308;28;20707;-76
2022/12/23 00:45:50;;;;;;;219.27;95.97;;;;;;;2.67;85.88;94709.91;4991255;28;20176;-76
2022/12/23 00:50:59;;;;;;;223.00;95.70;;;;;;;2.62;85.43;94697.41;4971750;28;20192;-75
2022/12/23 00:53:25;;;;;;;211.60;96.67;;;;;;;2.50;86.03;94690.94;4989052;28;20185;-76
2022/12/23 00:55:51;;;;;;;231.97;102.70;;;;;;;2.50;86.49;94706.53;4994685;28;20209;-76
2022/12/23 00:58:19;;;;;;;226.93;99.43;;;;;;;2.54;86.08;94709.59;4988597;28;20257;-76
2022/12/23 01:06:14;;;;;;;220.50;97.73;;;;;;;2.64;86.83;94718.03;4994657;28;20231;-76
2022/12/23 01:08:40;;;;;;;225.03;92.43;;;;;;;2.56;85.87;94697.25;4978239;28;20192;-76
2022/12/23 01:11:08;;;;;;;201.10;85.90;;;;;;;2.72;86.23;94709.41;4974967;28;20174;-76
2022/12/23 01:13:34;;;;;;;168.30;72.63;;;;;;;2.57;86.31;94691.91;4983182;28;20542;-76
2022/12/23 01:16:05;;;;;;;162.33;70.17;;;;;;;2.56;86.51;94703.25;4974893;28;20189;-76
2022/12/23 01:18:32;;;;;;;162.40;73.40;;;;;;;2.56;86.81;94700.66;4988885;28;20181;-76
2022/12/23 01:21:01;;;;;;;169.03;72.00;;;;;;;2.62;86.87;94697.41;4994124;28;20291;-76
2022/12/23 01:23:27;;;;;;;172.43;80.22;;;;;;;2.56;87.17;94697.25;4991917;28;20823;-75
2022/12/23 01:26:00;;;;;;;164.57;70.80;;;;;;;2.58;87.54;94703.09;4994134;28;20285;-75
2022/12/23 01:28:27;;;;;;;176.93;73.83;;;;;;;2.61;87.52;94711.34;4994223;28;20191;-76
2022/12/23 01:30:53;;;;;;;172.53;79.20;;;;;;;2.70;87.36;94695.75;4994300;28;20181;-76
2022/12/23 01:33:18;;;;;;;168.73;79.43;;;;;;;2.72;87.61;94705.00;4992894;28;20427;-75
2022/12/23 01:35:44;;;;;;;164.17;73.77;;;;;;;2.73;87.57;94713.63;4994114;28;20546;-75
2022/12/23 01:38:09;;;;;;;157.33;68.70;;;;;;;2.81;87.15;94698.81;4993775;28;20178;-75
2022/12/23 01:40:36;;;;;;;160.33;68.43;;;;;;;2.87;87.19;94694.72;4976716;28;20284;-75
2022/12/23 01:43:02;;;;;;;174.07;80.75;;;;;;;2.90;86.86;94684.00;4973503;28;20457;-75
2022/12/23 01:45:29;;;;;;;153.73;70.00;;;;;;;2.96;86.63;94688.53;4974154;28;20652;-75
2022/12/23 01:48:01;;;;;;;162.30;67.47;;;;;;;3.04;86.51;94685.88;4975202;28;20197;-76
2022/12/23 01:50:32;;;;;;;150.73;67.03;;;;;;;3.07;86.36;94671.75;4974203;28;20188;-75
2022/12/23 01:53:07;;;;;;;154.20;65.83;;;;;;;3.10;85.53;94671.41;4978104;28;20264;-75
2022/12/23 01:55:39;;;;;;;156.83;64.47;;;;;;;3.08;85.96;94670.78;4984654;28;20565;-75
2022/12/23 01:58:21;;;;;;;166.55;78.68;;;;;;;3.00;86.51;94656.84;4984561;28;21996;-75
2022/12/23 02:03:43;;;;;;;159.10;70.30;;;;;;;2.86;88.41;94667.09;4980259;28;20602;-75
2022/12/23 02:09:23;;;;;;;161.47;68.23;;;;;;;2.90;86.98;94634.63;4973771;28;20248;-76
2022/12/23 02:12:16;;;;;;;150.40;66.37;;;;;;;3.12;86.58;94649.44;4973842;28;20195;-76
2022/12/23 02:17:41;;;;;;;145.20;63.87;;;;;;;3.18;86.83;94650.56;4974157;28;20188;-76
2022/12/23 02:20:19;;;;;;;157.18;77.00;;;;;;;3.09;86.55;94636.81;4972770;28;20496;-75
2022/12/23 02:23:13;;;;;;;177.20;84.80;;;;;;;2.94;88.00;94635.91;4972746;28;21105;-75
2022/12/23 02:26:04;;;;;;;172.83;76.13;;;;;;;3.03;88.16;94642.66;4967180;28;20657;-76
2022/12/23 02:28:57;;;;;;;161.30;70.67;;;;;;;3.10;88.11;94648.84;4977667;28;20185;-76
2022/12/23 02:31:26;;;;;;;154.37;68.77;;;;;;;3.19;87.55;94642.59;4982510;28;20177;-76
2022/12/23 02:33:54;;;;;;;147.77;67.37;;;;;;;3.27;86.98;94644.34;4979336;28;20188;-76
2022/12/23 02:37:03;;;;;;;137.30;65.20;;;;;;;3.29;86.73;94643.19;4975195;28;20671;-75
2022/12/23 02:39:41;;;;;;;143.67;63.37;;;;;;;3.14;85.71;94621.50;4976374;28;20198;-75
2022/12/23 02:42:15;;;;;;;129.47;59.03;;;;;;;3.32;86.06;94635.03;4992756;28;20200;-75
2022/12/23 02:44:52;;;;;;;121.43;55.07;;;;;;;3.29;85.66;94637.97;4965444;28;20182;-76
2022/12/23 02:47:26;;;;;;;121.70;54.70;;;;;;;3.23;86.16;94635.25;4973760;28;20192;-76
2022/12/23 02:49:56;;;;;;;107.30;50.13;;;;;;;3.34;85.82;94653.09;4973446;28;20189;-76
2022/12/23 02:52:30;;;;;;;113.70;55.85;;;;;;;3.28;85.68;94636.38;4971645;28;20429;-76
2022/12/23 02:55:02;;;;;;;105.17;46.17;;;;;;;3.36;85.34;94654.53;4966762;28;20249;-76
2022/12/23 02:57:36;;;;;;;98.30;44.70;;;;;;;3.37;84.40;94635.31;4973370;28;20213;-76
2022/12/23 03:00:03;;;;;;;106.13;44.20;;;;;;;3.17;84.19;94622.94;4985747;28;20668;-76
2022/12/23 03:02:33;;;;;;;97.70;44.93;;;;;;;3.32;84.15;94657.63;4992533;28;20181;-76
2022/12/23 03:04:58;;;;;;;107.70;44.17;;;;;;;3.23;84.63;94635.25;4972926;28;20700;-76
2022/12/23 03:07:37;;;;;;;103.37;45.80;;;;;;;3.37;83.96;94655.34;4979765;28;20272;-76
2022/12/23 03:10:02;;;;;;;110.60;46.23;;;;;;;3.33;83.41;94648.84;4992261;28;20187;-76
2022/12/23 03:12:43;;;;;;;115.00;52.77;;;;;;;3.28;83.56;94644.19;4991856;28;20510;-76
2022/12/23 03:15:30;;;;;;;120.30;56.95;;;;;;;3.21;84.14;94645.81;4980282;28;20457;-76
2022/12/23 03:18:08;;;;;;;116.20;50.53;;;;;;;3.24;83.37;94637.69;4973102;28;20177;-76
2022/12/23 03:20:42;;;;;;;119.38;55.38;;;;;;;3.13;83.66;94642.47;4986115;28;20448;-76
2022/12/23 03:23:29;;;;;;;105.97;48.93;;;;;;;3.08;84.08;94634.38;4992120;28;20535;-76
2022/12/23 03:26:10;;;;;;;122.13;51.13;;;;;;;3.15;84.35;94650.91;4974634;28;20789;-76
2022/12/23 03:29:02;;;;;;;113.70;47.73;;;;;;;3.22;84.24;94646.63;4972727;28;20222;-76
2022/12/23 03:31:30;;;;;;;115.03;48.83;;;;;;;3.17;84.51;94647.16;4972803;28;20642;-76
2022/12/23 03:34:20;;;;;;;107.77;45.47;;;;;;;3.20;84.74;94643.41;4972512;28;20244;-76
2022/12/23 03:36:49;;;;;;;104.20;45.67;;;;;;;3.26;84.70;94640.94;4972557;28;20198;-76
2022/12/23 03:39:18;;;;;;;108.80;47.90;;;;;;;3.25;84.80;94646.31;4972528;28;20557;-76
2022/12/23 03:41:51;;;;;;;98.03;44.93;;;;;;;3.26;84.60;94650.53;4972353;28;20225;-76
2022/12/23 03:44:25;;;;;;;113.80;52.15;;;;;;;3.22;84.56;94642.25;4972217;28;20418;-76
2022/12/23 03:47:00;;;;;;;115.43;49.77;;;;;;;3.06;84.32;94621.53;4972458;28;20688;-76
2022/12/23 03:49:34;;;;;;;106.50;47.47;;;;;;;3.16;84.64;94652.53;4980382;28;20672;-76
2022/12/23 03:52:08;;;;;;;119.22;54.25;;;;;;;3.04;84.50;94639.09;4972008;28;20417;-76
2022/12/23 03:54:43;;;;;;;128.43;55.47;;;;;;;2.88;84.58;94616.59;4983228;28;20446;-76
2022/12/23 03:57:10;;;;;;;122.05;57.80;;;;;;;2.97;85.27;94643.34;4990601;28;20427;-75
2022/12/23 03:59:42;;;;;;;108.32;54.53;;;;;;;2.86;86.70;94641.13;4989849;28;20527;-75
2022/12/23 04:02:23;;;;;;;97.27;45.47;;;;;;;2.99;86.17;94636.19;4991731;28;20878;-75
2022/12/23 04:05:25;;;;;;;104.80;51.53;;;;;;;2.85;86.97;94644.72;4989853;28;20499;-76
2022/12/23 04:08:18;;;;;;;102.60;51.83;;;;;;;2.85;87.34;94642.94;4988582;28;20827;-75
2022/12/23 04:10:45;;;;;;;111.80;53.50;;;;;;;2.94;87.89;94654.88;4989768;28;20420;-76
2022/12/23 04:13:11;;;;;;;95.43;46.77;;;;;;;3.09;86.98;94649.81;4991472;28;20185;-76
2022/12/23 04:15:41;;;;;;;97.07;44.60;;;;;;;3.18;86.77;94646.19;4974220;28;20174;-76
2022/12/23 04:18:07;;;;;;;95.65;39.95;;;;;;;3.16;86.13;94648.13;4971848;28;20529;-76
2022/12/23 04:20:33;;;;;;;84.33;39.90;;;;;;;3.21;86.43;94653.63;4970739;28;20202;-76
2022/12/23 04:22:58;;;;;;;85.53;39.87;;;;;;;3.27;85.91;94652.16;4972428;28;20208;-76
2022/12/23 04:25:23;;;;;;;76.00;37.20;;;;;;;3.25;86.45;94641.09;4989109;28;20177;-76
2022/12/23 04:27:49;;;;;;;82.20;39.17;;;;;;;3.28;86.69;94641.59;4987124;28;20173;-76
2022/12/23 04:30:14;;;;;;;78.57;38.00;;;;;;;3.36;87.03;94636.34;4994101;28;20565;-76
2022/12/23 04:32:41;;;;;;;88.00;40.07;;;;;;;3.35;86.66;94632.09;4994266;28;20173;-77
2022/12/23 04:35:08;;;;;;;78.33;38.37;;;;;;;3.34;86.68;94629.66;4994366;28;20234;-76
2022/12/23 04:37:33;;;;;;;78.07;38.23;;;;;;;3.27;87.03;94624.34;4988794;28;20177;-76
2022/12/23 04:39:58;;;;;;;79.17;38.87;;;;;;;3.39;87.31;94651.56;4977279;28;20286;-76
2022/12/23 04:42:24;;;;;;;80.97;37.67;;;;;;;3.47;87.08;94634.28;4980212;28;20229;-76
2022/12/23 04:44:49;;;;;;;86.43;39.97;;;;;;;3.45;86.66;94639.69;4974110;28;20213;-76
2022/12/23 04:47:15;;;;;;;86.93;38.60;;;;;;;3.37;86.92;94652.75;4973826;28;20232;-76
2022/12/23 04:49:40;;;;;;;87.97;37.23;;;;;;;3.42;87.56;94648.63;4986667;28;20264;-77
2022/12/23 04:52:06;;;;;;;92.15;46.60;;;;;;;3.24;87.96;94644.69;4981115;28;20431;-76
2022/12/23 04:54:31;;;;;;;83.50;40.57;;;;;;;3.23;88.47;94643.88;4980911;28;20188;-76
2022/12/23 04:56:56;;;;;;;90.73;41.20;;;;;;;3.35;88.65;94642.50;4975616;28;20177;-76
2022/12/23 04:59:22;;;;;;;97.50;43.47;;;;;;;3.30;87.79;94655.19;4990107;28;20537;-76
2022/12/23 05:01:47;;;;;;;89.23;44.33;;;;;;;3.36;88.16;94666.72;4994876;28;20239;-76
2022/12/23 05:04:13;;;;;;;99.23;46.10;;;;;;;3.38;88.51;94668.16;4994747;28;20561;-76
2022/12/23 05:06:38;;;;;;;102.53;47.97;;;;;;;3.42;88.45;94677.25;4994401;28;20184;-76
2022/12/23 05:09:04;;;;;;;107.23;47.53;;;;;;;3.37;88.06;94661.34;4974372;28;20193;-76
2022/12/23 05:11:29;;;;;;;106.57;47.33;;;;;;;3.48;88.52;94665.34;4975217;28;20181;-76
2022/12/23 05:13:55;;;;;;;111.37;50.70;;;;;;;3.51;88.09;94672.81;4975222;28;20185;-76
2022/12/23 05:16:20;;;;;;;117.83;54.50;;;;;;;3.52;88.19;94669.22;4990845;28;20177;-76
2022/12/23 05:18:46;;;;;;;121.88;62.53;;;;;;;3.57;87.84;94668.72;4972537;28;21286;-76
2022/12/23 05:21:11;;;;;;;115.37;55.87;;;;;;;3.56;87.81;94686.09;4974807;28;20196;-76
2022/12/23 05:23:37;;;;;;;123.10;58.63;;;;;;;3.57;87.88;94676.50;4974898;28;20182;-76
2022/12/23 05:26:03;;;;;;;136.38;69.45;;;;;;;3.39;88.34;94669.78;4972107;28;20523;-76
2022/12/23 05:28:28;;;;;;;140.37;64.47;;;;;;;3.41;88.67;94672.22;4974851;28;20181;-76
2022/12/23 05:31:05;;;;;;;117.43;61.00;;;;;;;3.46;88.37;94677.69;4974829;28;20185;-78
2022/12/23 05:33:31;;;;;;;118.57;57.83;;;;;;;3.48;88.80;94680.16;4990133;28;20560;-78
2022/12/23 05:35:57;;;;;;;129.53;60.53;;;;;;;3.26;88.50;94627.94;4976798;28;20185;-78
2022/12/23 05:38:23;;;;;;;133.60;61.03;;;;;;;3.62;88.66;94674.22;4988530;28;20181;-78
2022/12/23 05:40:49;;;;;;;127.07;63.17;;;;;;;3.65;88.16;94674.66;4993947;28;20247;-78
2022/12/23 05:43:16;;;;;;;133.37;65.90;;;;;;;3.78;87.98;94672.31;4983161;28;20184;-78
2022/12/23 05:45:41;;;;;;;146.13;76.20;;;;;;;3.81;88.16;94673.75;4973259;28;20421;-78
2022/12/23 05:48:07;;;;;;;128.93;63.77;;;;;;;3.85;88.07;94671.59;4983197;28;20549;-78
2022/12/23 05:50:32;;;;;;;140.65;69.80;;;;;;;3.82;88.06;94670.16;4973504;28;20418;-78
2022/12/23 05:52:58;;;;;;;143.53;65.30;;;;;;;3.88;87.26;94676.47;4974840;28;20177;-78
2022/12/23 05:55:24;;;;;;;161.90;74.57;;;;;;;3.95;86.84;94675.59;4975015;28;20182;-78
2022/12/23 05:57:50;;;;;;;180.02;89.10;;;;;;;3.83;86.99;94671.78;4973686;28;20417;-78
2022/12/23 06:00:16;;;;;;;149.47;74.70;;;;;;;3.84;87.28;94678.59;4974722;28;20210;-78
2022/12/23 06:02:42;;;;;;;166.37;79.70;;;;;;;3.79;88.10;94668.72;4987918;28;20172;-78
2022/12/23 06:05:08;;;;;;;159.07;74.50;;;;;;;3.83;87.44;94673.56;4985994;28;20245;-78
2022/12/23 06:07:34;;;;;;;172.10;74.30;;;;;;;3.86;87.09;94673.22;4983007;28;20233;-78
2022/12/23 06:09:59;;;;;;;163.53;77.97;;;;;;;3.85;87.08;94677.63;4974617;28;20193;-78
2022/12/23 06:12:25;;;;;;;165.27;82.07;;;;;;;3.83;87.17;94660.56;4992708;28;20191;-78
2022/12/23 06:14:51;;;;;;;168.43;82.33;;;;;;;3.87;87.17;94673.06;4994136;28;20180;-78
2022/12/23 06:17:16;;;;;;;180.80;82.43;;;;;;;3.88;87.68;94679.09;4993837;28;20608;-78
2022/12/23 06:19:41;;;;;;;183.17;85.60;;;;;;;3.86;87.82;94678.44;4994336;28;20628;-78
2022/12/23 06:22:07;;;;;;;203.73;92.57;;;;;;;3.84;88.11;94670.00;4993773;28;20205;-78
2022/12/23 06:24:32;;;;;;;218.53;102.27;;;;;;;3.56;88.38;94623.66;4985772;28;20243;-78
2022/12/23 06:26:57;;;;;;;202.70;92.13;;;;;;;3.86;88.29;94668.03;4989991;28;20185;-78
2022/12/23 06:29:23;;;;;;;180.70;82.43;;;;;;;3.92;87.81;94678.53;4974440;28;20222;-78
2022/12/23 06:31:49;;;;;;;198.90;90.93;;;;;;;3.98;87.79;94675.22;4982290;28;20178;-78
2022/12/23 06:34:14;;;;;;;208.07;95.53;;;;;;;4.02;87.48;94688.72;4974372;28;20551;-78
2022/12/23 06:36:39;;;;;;;177.43;82.30;;;;;;;4.02;87.52;94691.34;4983067;28;20173;-78
2022/12/23 06:39:05;;;;;;;115.50;58.03;;;;;;;4.06;87.18;94688.22;4994044;28;20260;-78
2022/12/23 06:41:30;;;;;;;133.70;61.90;;;;;;;4.16;87.11;94686.16;4985469;28;20203;-78
2022/12/23 06:43:56;;;;;;;115.50;55.43;;;;;;;4.24;87.03;94685.28;4982666;28;20180;-78
2022/12/23 06:46:21;;;;;;;132.40;60.90;;;;;;;4.08;86.97;94670.59;4979874;28;20635;-78
2022/12/23 06:48:46;;;;;;;122.80;55.53;;;;;;;4.22;86.82;94707.28;4976943;28;20279;-78
2022/12/23 06:51:12;;;;;;;106.97;50.73;;;;;;;4.26;86.59;94692.91;4981380;28;20180;-77
2022/12/23 06:53:38;;;;;;;100.67;47.27;;;;;;;4.13;85.64;94673.50;4976806;28;20205;-78
2022/12/23 06:56:04;;;;;;;93.83;45.10;;;;;;;4.07;85.05;94658.56;4974068;28;20185;-78
2022/12/23 06:58:29;;;;;;;92.87;45.57;;;;;;;4.28;85.22;94690.97;4973935;28;20178;-78
2022/12/23 07:00:55;;;;;;;107.50;49.93;;;;;;;4.28;85.01;94691.75;4989741;28;20218;-78
2022/12/23 07:03:20;;;;;;;104.53;48.37;;;;;;;4.08;84.81;94675.00;4989890;28;20617;-78
2022/12/23 07:05:50;;;;;;;111.20;48.40;;;;;;;4.24;85.36;94700.13;4987955;28;20213;-78
2022/12/23 07:08:16;;;;;;;113.40;50.60;;;;;;;4.27;85.45;94695.34;4983192;28;20185;-78
2022/12/23 07:10:41;;;;;;;126.03;53.50;;;;;;;4.34;85.17;94691.06;4978860;28;20195;-78
2022/12/23 07:13:07;;;;;;;135.10;57.77;;;;;;;4.28;84.67;94683.13;4976512;28;20178;-77
2022/12/23 07:15:32;;;;;;;124.53;57.33;;;;;;;4.37;84.62;94702.94;4976851;28;20176;-77
2022/12/23 07:17:58;;;;;;;127.03;55.87;;;;;;;4.43;84.44;94707.41;4984856;28;20185;-77
2022/12/23 07:20:23;;;;;;;129.77;57.40;;;;;;;4.41;84.44;94699.00;4992391;28;20280;-75
2022/12/23 07:22:49;;;;;;;143.13;59.83;;;;;;;4.40;84.38;94698.19;4992139;28;20176;-76
2022/12/23 07:25:15;;;;;;;136.80;56.30;;;;;;;4.40;83.98;94705.19;4990475;28;20181;-75
2022/12/23 07:27:41;;;;;;;125.53;52.80;;;;;;;4.33;83.60;94676.41;4991701;28;20183;-74
2022/12/23 07:30:07;;;;;;;120.53;57.10;;;;;;;4.76;83.33;94700.09;4991644;28;20169;-74
2022/12/23 07:32:32;;;;;;;107.80;51.13;;;;;;;5.80;82.33;94696.34;4991517;28;20220;-74
2022/12/23 07:34:58;;;;;;;112.93;51.23;;;;;;;7.69;75.72;94705.75;4991535;28;20263;-74
2022/12/23 07:37:23;;;;;;;101.53;48.90;;;;;;;9.44;67.39;94720.13;4991929;28;20255;-76
2022/12/23 07:39:48;;;;;;;101.67;48.77;;;;;;;10.50;61.27;94723.06;4991655;28;20256;-74
2022/12/23 07:42:14;;;;;;;99.50;51.07;;;;;;;10.89;58.17;94729.88;4991338;28;20205;-74
2022/12/23 07:44:39;;;;;;;102.60;50.00;;;;;;;11.94;55.50;94735.06;4991206;28;20579;-74
2022/12/23 07:47:04;;;;;;;102.07;48.33;;;;;;;13.29;51.11;94737.97;4991416;28;20212;-74
2022/12/23 07:49:30;;;;;;;92.73;46.73;;;;;;;14.49;47.59;94728.28;4991567;28;20176;-74
2022/12/23 07:51:56;;;;;;;98.43;48.13;;;;;;;15.18;45.39;94710.31;4991321;28;20200;-75
2022/12/23 07:54:22;;;;;;;90.57;47.77;;;;;;;16.25;42.92;94728.50;4991540;28;20267;-75
2022/12/23 07:56:47;;;;;;;86.73;45.53;;;;;;;17.40;40.00;94724.47;4990162;28;20279;-75
2022/12/23 07:59:12;;;;;;;89.70;46.58;;;;;;;18.25;38.25;94730.56;4991328;28;20178;-75
2022/12/23 08:01:38;;;;;;;86.63;47.10;;;;;;;18.95;36.22;94719.25;4991103;28;20616;-75
2022/12/23 08:04:03;;;;;;;88.28;47.70;;;;;;;19.56;35.00;94725.38;4972891;28;20177;-75
2022/12/23 08:06:29;;;;;;;89.57;48.88;;;;;;;19.98;34.28;94730.34;4971878;28;20184;-75
2022/12/23 08:08:54;;;;;;;79.32;43.97;;;;;;;19.91;33.72;94732.50;4971864;28;20181;-74
2022/12/23 08:11:19;;;;;;;81.47;46.40;;;;;;;19.69;33.89;94725.91;4971868;28;20277;-74
2022/12/23 08:13:47;;;;;;;82.57;46.15;;;;;;;19.47;34.09;94699.47;4986262;28;20181;-75
2022/12/23 08:16:12;;;;;;;84.60;47.50;;;;;;;19.30;33.60;94734.44;4990033;28;20224;-74
2022/12/23 08:18:40;;;;;;;77.35;47.83;;;;;;;18.48;35.12;94730.88;4991169;28;20307;-75
2022/12/23 08:21:09;;;;;;;87.72;47.90;;;;;;;18.03;36.74;94709.41;4990941;28;20208;-75
2022/12/23 08:23:36;;;;;;;86.90;48.65;;;;;;;17.69;38.02;94732.94;4974565;28;20197;-74
2022/12/23 08:26:05;;;;;;;78.30;47.47;;;;;;;16.98;37.92;94729.75;4971828;28;20267;-75
2022/12/23 08:28:32;;;;;;;76.90;45.72;;;;;;;16.15;39.53;94702.63;4971811;28;20248;-75
2022/12/23 08:31:25;;;;;;;88.13;47.30;;;;;;;15.90;40.81;94731.53;4971695;28;20201;-75
2022/12/23 08:33:53;;;;;;;83.77;46.10;;;;;;;15.49;40.98;94728.28;4971741;28;20182;-73
2022/12/23 08:36:24;;;;;;;87.23;44.73;;;;;;;15.05;42.58;94730.00;4971533;28;20181;-73
2022/12/23 08:38:52;;;;;;;87.13;45.67;;;;;;;14.71;43.26;94733.69;4975503;28;20185;-73
2022/12/23 08:41:22;;;;;;;85.60;46.20;;;;;;;14.20;43.62;94727.44;4990702;28;20735;-74
2022/12/23 08:43:48;;;;;;;88.20;44.23;;;;;;;13.70;45.45;94724.59;4990835;28;20268;-74
2022/12/23 08:46:13;;;;;;;88.27;44.63;;;;;;;13.17;45.59;94722.13;4990757;28;20265;-74
2022/12/23 08:48:38;;;;;;;85.43;46.07;;;;;;;12.59;46.87;94724.66;4990862;28;20181;-74
2022/12/23 08:51:07;;;;;;;79.53;43.97;;;;;;;11.92;48.45;94716.84;4990752;28;20173;-73
2022/12/23 08:53:34;;;;;;;90.17;45.23;;;;;;;11.36;50.52;94724.97;4982514;28;20265;-74
2022/12/23 08:56:03;;;;;;;86.70;43.43;;;;;;;10.97;51.94;94718.25;4971395;28;20178;-74
2022/12/23 08:58:29;;;;;;;82.57;44.10;;;;;;;10.71;52.87;94719.28;4971336;28;20676;-74
2022/12/23 09:00:54;;;;;;;86.90;42.83;;;;;;;10.46;53.66;94713.19;4971029;28;20201;-73
2022/12/23 09:03:20;;;;;;;75.70;41.37;;;;;;;10.22;53.85;94717.38;4971089;28;20182;-74
2022/12/23 09:05:45;;;;;;;83.53;43.67;;;;;;;10.00;54.97;94718.69;4970908;28;20217;-74
2022/12/23 09:08:11;;;;;;;96.07;41.60;;;;;;;9.86;55.67;94722.41;4971173;28;20269;-74
2022/12/23 09:10:43;;;;;;;92.00;40.57;;;;;;;9.61;55.95;94711.78;4970741;28;20162;-74
2022/12/23 09:13:12;;;;;;;73.00;39.43;;;;;;;9.42;56.95;94711.66;4970129;28;20241;-74
2022/12/23 09:15:42;;;;;;;82.33;40.37;;;;;;;9.25;57.67;94717.56;4972636;28;20186;-74
2022/12/23 09:18:08;;;;;;;82.40;41.57;;;;;;;9.13;58.66;94714.75;4974207;28;20181;-73
2022/12/23 09:20:33;;;;;;;87.77;41.63;;;;;;;9.04;60.10;94711.56;4974014;28;20201;-74
2022/12/23 09:23:00;;;;;;;85.20;43.20;;;;;;;9.02;61.25;94700.44;4973825;28;20669;-73
2022/12/23 09:25:26;;;;;;;99.87;45.10;;;;;;;9.08;61.91;94715.38;4972733;28;20170;-73
2022/12/23 09:27:51;;;;;;;92.20;46.40;;;;;;;9.14;60.92;94713.75;4973933;28;20653;-74
2022/12/23 09:30:16;;;;;;;88.37;46.23;;;;;;;9.13;61.28;94717.38;4973800;28;20669;-74
2022/12/23 09:32:42;;;;;;;90.50;43.73;;;;;;;9.11;60.80;94719.41;4973844;28;20178;-74
2022/12/23 09:35:08;;;;;;;90.90;43.87;;;;;;;9.07;60.96;94713.78;4973906;28;20185;-74
2022/12/23 09:37:34;;;;;;;92.43;45.47;;;;;;;9.01;61.32;94716.38;4974155;28;20177;-73
2022/12/23 09:40:00;;;;;;;93.80;44.30;;;;;;;9.02;60.54;94715.38;4973653;28;20189;-74
2022/12/23 09:42:37;;;;;;;85.13;45.57;;;;;;;8.92;60.39;94705.28;4973555;28;20264;-74
2022/12/23 09:45:24;;;;;;;89.40;44.57;;;;;;;8.82;62.16;94704.13;4973632;28;20181;-74
2022/12/23 09:47:53;;;;;;;92.40;44.17;;;;;;;8.76;62.12;94712.78;4973570;28;20252;-74
2022/12/23 09:50:36;;;;;;;88.13;45.60;;;;;;;8.66;63.13;94703.50;4973592;28;20174;-74
2022/12/23 09:53:07;;;;;;;89.67;45.57;;;;;;;8.71;62.84;94705.53;4973410;28;20188;-74
2022/12/23 09:55:56;;;;;;;91.00;44.37;;;;;;;8.64;63.20;94707.34;4973351;28;20265;-73
2022/12/23 09:58:25;;;;;;;96.10;46.50;;;;;;;8.62;63.94;94707.56;4973389;28;20178;-74
2022/12/23 10:01:10;;;;;;;90.30;43.20;;;;;;;8.39;63.94;94686.13;4973122;28;20212;-73
2022/12/23 10:04:00;;;;;;;101.40;46.93;;;;;;;8.61;62.94;94700.69;4973155;28;20177;-74
2022/12/23 10:06:28;;;;;;;98.10;48.37;;;;;;;8.58;63.63;94702.91;4973329;28;20727;-74
2022/12/23 10:08:59;;;;;;;97.30;48.37;;;;;;;8.62;64.25;94699.69;4973057;28;20178;-74
2022/12/23 10:11:29;;;;;;;103.93;51.53;;;;;;;8.57;64.75;94670.59;4973363;28;20253;-74
2022/12/23 10:14:00;;;;;;;126.17;57.87;;;;;;;8.88;65.49;94687.53;4973127;28;20178;-74
2022/12/23 10:16:38;;;;;;;121.27;57.10;;;;;;;8.99;63.90;94685.09;4973178;28;20584;-74
2022/12/23 10:19:33;;;;;;;109.97;54.60;;;;;;;9.09;64.09;94679.41;4973238;28;20276;-74
2022/12/23 10:22:03;;;;;;;109.47;54.90;;;;;;;9.13;63.21;94682.44;4971847;28;20234;-74
2022/12/23 10:24:41;;;;;;;121.07;55.60;;;;;;;9.16;63.52;94674.97;4972969;28;20181;-74
2022/12/23 10:27:22;;;;;;;106.97;52.07;;;;;;;9.20;62.58;94681.41;4971921;28;20182;-74
2022/12/23 10:29:48;;;;;;;112.03;54.67;;;;;;;9.27;63.36;94682.19;4972781;28;20174;-74
2022/12/23 10:32:27;;;;;;;116.97;55.83;;;;;;;9.43;62.19;94676.47;4972647;28;20190;-73
2022/12/23 10:35:13;;;;;;;109.47;52.33;;;;;;;9.62;61.89;94673.97;4972711;28;20607;-74
2022/12/23 10:37:41;;;;;;;120.33;54.27;;;;;;;9.70;62.61;94673.75;4972664;28;20189;-74
2022/12/23 10:40:22;;;;;;;109.57;50.63;;;;;;;9.80;61.17;94666.22;4972489;28;20205;-74
2022/12/23 10:43:17;;;;;;;113.43;52.50;;;;;;;9.87;60.33;94650.41;4972534;28;20661;-74
2022/12/23 10:46:24;;;;;;;106.40;51.60;;;;;;;9.98;59.97;94661.06;4970917;28;20189;-74
2022/12/23 10:48:55;;;;;;;108.50;52.03;;;;;;;10.04;60.00;94657.56;4951271;28;20656;-74
2022/12/23 10:51:37;;;;;;;103.87;50.53;;;;;;;10.23;60.25;94647.97;4951089;28;20179;-74
2022/12/23 10:54:11;;;;;;;110.00;51.17;;;;;;;10.29;58.81;94627.91;4964139;28;20198;-73
2022/12/23 10:56:37;;;;;;;99.33;50.97;;;;;;;10.54;58.65;94647.94;4972480;28;20180;-74
2022/12/23 10:59:06;;;;;;;102.17;50.30;;;;;;;10.68;58.54;94643.34;4972258;28;20178;-74
2022/12/23 11:01:32;;;;;;;103.00;51.47;;;;;;;10.50;58.02;94624.88;4972223;28;20201;-72
2022/12/23 11:04:15;;;;;;;100.73;52.97;;;;;;;10.53;58.66;94648.16;4972295;28;20216;-73
2022/12/23 11:06:45;;;;;;;106.87;49.70;;;;;;;10.42;59.09;94643.59;4972350;28;20665;-73
2022/12/23 11:09:18;;;;;;;95.27;48.40;;;;;;;10.37;58.98;94640.81;4972327;28;20209;-73
2022/12/23 11:12:00;;;;;;;94.50;45.70;;;;;;;10.28;59.88;94647.34;4972046;28;20300;-73
2022/12/23 11:14:34;;;;;;;89.27;46.37;;;;;;;10.20;60.54;94648.41;4972449;28;20731;-73
2022/12/23 11:17:00;;;;;;;89.23;43.10;;;;;;;10.21;60.06;94642.91;4972132;28;20173;-73
2022/12/23 11:19:26;;;;;;;86.23;46.10;;;;;;;10.25;61.21;94643.31;4971944;28;20565;-73
2022/12/23 11:21:57;;;;;;;90.73;45.20;;;;;;;10.38;60.77;94645.03;4971802;28;20202;-73
2022/12/23 11:24:24;;;;;;;87.77;41.43;;;;;;;10.38;60.78;94637.94;4971871;28;20180;-73
2022/12/23 11:27:00;;;;;;;89.90;43.53;;;;;;;10.37;60.71;94653.97;4971999;28;20182;-73
2022/12/23 11:29:33;;;;;;;92.20;42.10;;;;;;;10.35;60.98;94656.00;4972013;28;20185;-74
2022/12/23 11:32:02;;;;;;;85.33;41.80;;;;;;;10.31;60.42;94646.91;4971634;28;20181;-73
2022/12/23 11:34:32;;;;;;;82.23;40.37;;;;;;;10.08;60.79;94629.03;4971684;28;20646;-73
2022/12/23 11:36:59;;;;;;;87.30;41.83;;;;;;;10.15;61.28;94651.63;4971451;28;20260;-73
2022/12/23 11:39:28;;;;;;;91.07;42.50;;;;;;;10.08;61.73;94640.38;4971518;28;20200;-73
2022/12/23 11:42:16;;;;;;;82.93;41.20;;;;;;;10.05;62.22;94655.75;4971737;28;20205;-73
2022/12/23 11:44:45;;;;;;;95.00;41.00;;;;;;;10.04;62.66;94654.13;4972102;28;20522;-74
2022/12/23 11:47:21;;;;;;;85.53;40.80;;;;;;;9.88;63.23;94633.59;4972075;28;20209;-73
2022/12/23 11:49:53;;;;;;;84.83;41.87;;;;;;;9.90;63.64;94648.16;4971598;28;20201;-73
2022/12/23 11:52:24;;;;;;;91.57;44.17;;;;;;;9.87;64.04;94650.41;4971393;28;20276;-74
2022/12/23 11:54:53;;;;;;;87.13;44.73;;;;;;;9.69;64.96;94620.38;4971275;28;20192;-74